createdAt,value
2023-01-12T00:02:05.939Z,6.63
2023-01-12T00:04:35.747Z,9.03
2023-01-12T00:07:07.960Z,7.10
2023-01-12T00:09:36.433Z,9.60
2023-01-12T00:12:07.113Z,12.30
2023-01-12T00:14:35.162Z,11.53
2023-01-12T00:17:03.279Z,6.13
2023-01-12T00:19:33.307Z,8.93
2023-01-12T00:22:08.680Z,9.00
2023-01-12T00:24:40.090Z,6.07
2023-01-12T00:27:10.379Z,9.13
2023-01-12T00:29:38.361Z,10.87
2023-01-12T00:32:14.572Z,11.20
2023-01-12T00:34:42.641Z,6.80
2023-01-12T00:37:10.675Z,5.80
2023-01-12T00:39:43.015Z,7.43
2023-01-12T00:42:31.741Z,5.97
2023-01-12T00:45:17.245Z,6.37
2023-01-12T00:47:45.271Z,8.30
2023-01-12T00:50:13.228Z,7.60
2023-01-12T00:52:41.299Z,7.43
2023-01-12T00:55:10.899Z,7.40
2023-01-12T00:57:39.007Z,6.30
2023-01-12T01:00:08.227Z,5.93
2023-01-12T01:02:36.264Z,9.20
2023-01-12T01:05:04.292Z,7.27
2023-01-12T01:07:32.262Z,6.83
2023-01-12T01:10:00.213Z,6.27
2023-01-12T01:12:29.627Z,8.17
2023-01-12T01:14:57.609Z,6.50
2023-01-12T01:17:25.635Z,7.87
2023-01-12T01:19:53.591Z,8.90
2023-01-12T01:22:21.706Z,10.37
2023-01-12T01:24:49.702Z,3.63
2023-01-12T01:27:17.885Z,5.97
2023-01-12T01:29:47.222Z,10.67
2023-01-12T01:32:15.199Z,7.03
2023-01-12T01:34:43.979Z,2.43
2023-01-12T01:37:13.037Z,7.07
2023-01-12T01:39:41.054Z,3.30
2023-01-12T01:42:27.966Z,6.90
2023-01-12T01:44:59.545Z,8.27
2023-01-12T01:47:36.889Z,5.67
2023-01-12T01:50:11.324Z,7.23
2023-01-12T01:52:43.620Z,8.97
2023-01-12T01:55:14.893Z,9.93
2023-01-12T01:57:46.392Z,8.53
2023-01-12T02:00:16.385Z,6.60
2023-01-12T02:02:46.934Z,7.43
2023-01-12T02:05:17.101Z,5.60
2023-01-12T02:07:45.281Z,5.17
2023-01-12T02:10:13.284Z,8.10
2023-01-12T02:12:59.393Z,5.27
2023-01-12T02:15:49.809Z,6.00
2023-01-12T02:18:26.675Z,4.57
2023-01-12T02:21:05.422Z,3.93
2023-01-12T02:24:27.456Z,4.63
2023-01-12T02:27:23.260Z,5.10
2023-01-12T02:30:18.018Z,7.67
2023-01-12T02:32:57.214Z,3.67
2023-01-12T02:35:30.107Z,7.73
2023-01-12T02:38:09.376Z,7.53
2023-01-12T02:40:45.231Z,4.87
2023-01-12T02:43:17.919Z,7.07
2023-01-12T02:45:51.662Z,3.80
2023-01-12T02:48:28.464Z,5.63
2023-01-12T02:51:02.353Z,4.50
2023-01-12T02:53:35.420Z,5.10
2023-01-12T02:56:07.674Z,6.17
2023-01-12T02:58:39.227Z,3.70
2023-01-12T03:01:09.573Z,6.70
2023-01-12T03:03:40.681Z,3.57
2023-01-12T03:06:09.100Z,2.43
2023-01-12T03:08:39.753Z,5.70
2023-01-12T03:11:13.071Z,4.53
2023-01-12T03:13:46.213Z,6.33
2023-01-12T03:16:17.444Z,3.10
2023-01-12T03:18:51.694Z,6.80
2023-01-12T03:21:26.208Z,9.73
2023-01-12T03:23:59.473Z,2.40
2023-01-12T03:26:29.715Z,2.90
2023-01-12T03:29:04.797Z,4.73
2023-01-12T03:31:33.290Z,5.17
2023-01-12T03:34:03.190Z,3.37
2023-01-12T03:36:42.220Z,2.27
2023-01-12T03:39:17.719Z,5.33
2023-01-12T03:41:55.721Z,6.30
2023-01-12T03:44:31.379Z,5.83
2023-01-12T03:47:04.717Z,4.67
2023-01-12T03:49:40.372Z,4.37
2023-01-12T03:52:10.253Z,6.43
2023-01-12T03:54:40.676Z,2.37
2023-01-12T03:57:10.257Z,1.73
2023-01-12T03:59:38.235Z,6.70
2023-01-12T04:02:06.207Z,3.13
2023-01-12T04:04:35.654Z,5.60
2023-01-12T04:07:03.599Z,7.20
2023-01-12T04:09:31.554Z,7.63
2023-01-12T04:12:11.380Z,3.87
2023-01-12T04:14:40.361Z,3.47
2023-01-12T04:17:09.233Z,6.30
2023-01-12T04:19:38.854Z,7.00
2023-01-12T04:22:24.552Z,3.33
2023-01-12T04:24:52.554Z,5.27
2023-01-12T04:27:20.552Z,4.10
2023-01-12T04:29:48.537Z,7.50
2023-01-12T04:32:16.520Z,3.90
2023-01-12T04:34:46.333Z,4.33
2023-01-12T04:37:14.698Z,4.77
2023-01-12T04:39:42.867Z,4.43
2023-01-12T04:42:30.982Z,7.30
2023-01-12T04:44:58.990Z,3.73
2023-01-12T04:47:26.946Z,7.07
2023-01-12T04:49:56.438Z,6.87
2023-01-12T04:52:24.396Z,8.47
2023-01-12T04:54:52.355Z,6.20
2023-01-12T04:57:20.314Z,4.93
2023-01-12T04:59:48.286Z,5.20
2023-01-12T05:02:16.343Z,4.83
2023-01-12T05:04:44.351Z,3.83
2023-01-12T05:07:13.741Z,5.03
2023-01-12T05:09:59.176Z,5.87
2023-01-12T05:12:28.041Z,5.53
2023-01-12T05:14:55.996Z,3.80
2023-01-12T05:17:23.937Z,5.00
2023-01-12T05:19:51.938Z,3.17
2023-01-12T05:22:21.282Z,6.57
2023-01-12T05:24:49.268Z,4.23
2023-01-12T05:27:18.138Z,4.70
2023-01-12T05:29:46.128Z,5.93
2023-01-12T05:32:14.088Z,5.87
2023-01-12T05:34:42.297Z,6.47
2023-01-12T05:37:10.279Z,4.13
2023-01-12T05:39:39.610Z,3.40
2023-01-12T05:42:24.972Z,6.33
2023-01-12T05:44:52.933Z,4.50
2023-01-12T05:47:20.902Z,7.20
2023-01-12T05:49:48.877Z,5.90
2023-01-12T05:52:16.906Z,4.63
2023-01-12T05:54:46.224Z,3.73
2023-01-12T05:57:14.180Z,9.27
2023-01-12T05:59:42.172Z,8.60
2023-01-12T06:02:12.132Z,5.47
2023-01-12T06:04:40.231Z,5.13
2023-01-12T06:07:39.415Z,6.73
2023-01-12T06:10:10.471Z,7.20
2023-01-12T06:12:55.818Z,4.97
2023-01-12T06:15:23.773Z,7.03
2023-01-12T06:17:51.751Z,5.10
2023-01-12T06:20:19.920Z,5.80
2023-01-12T06:22:47.886Z,7.17
2023-01-12T06:25:17.416Z,7.97
2023-01-12T06:27:45.400Z,7.33
2023-01-12T06:30:14.105Z,3.67
2023-01-12T06:32:43.147Z,3.10
2023-01-12T06:35:19.195Z,4.80
2023-01-12T06:37:47.874Z,9.27
2023-01-12T06:40:17.402Z,4.20
2023-01-12T06:42:45.375Z,5.37
2023-01-12T06:45:13.374Z,6.30
2023-01-12T06:47:49.300Z,5.93
2023-01-12T06:50:17.987Z,8.63
2023-01-12T06:52:46.138Z,6.07
2023-01-12T06:55:14.139Z,7.33
2023-01-12T06:57:43.493Z,8.57
2023-01-12T07:00:13.595Z,7.00
2023-01-12T07:02:41.568Z,4.40
2023-01-12T07:05:10.236Z,6.17
2023-01-12T07:07:40.249Z,7.07
2023-01-12T07:10:09.169Z,9.17
2023-01-12T07:12:37.172Z,5.53
2023-01-12T07:15:07.771Z,5.37
2023-01-12T07:17:35.824Z,5.60
2023-01-12T07:20:03.777Z,5.10
2023-01-12T07:22:31.756Z,6.00
2023-01-12T07:24:59.705Z,3.80
2023-01-12T07:27:27.690Z,6.50
2023-01-12T07:29:55.829Z,3.83
2023-01-12T07:32:29.606Z,3.27
2023-01-12T07:34:57.663Z,7.57
2023-01-12T07:37:25.662Z,4.77
2023-01-12T07:39:53.629Z,5.03
2023-01-12T07:42:24.346Z,8.40
2023-01-12T07:44:52.467Z,5.67
2023-01-12T07:47:20.655Z,3.50
2023-01-12T07:49:49.992Z,8.60
2023-01-12T07:52:18.183Z,5.87
2023-01-12T07:54:46.163Z,5.40
2023-01-12T07:57:14.197Z,5.03
2023-01-12T07:59:42.168Z,4.67
2023-01-12T08:02:16.376Z,5.27
2023-01-12T08:04:44.540Z,5.80
2023-01-12T08:07:14.907Z,4.63
2023-01-12T08:09:42.934Z,4.73
2023-01-12T08:12:10.909Z,5.70
2023-01-12T08:14:41.389Z,4.00
2023-01-12T08:17:14.569Z,3.80
2023-01-12T08:19:47.864Z,6.17
2023-01-12T08:22:21.405Z,9.47
2023-01-12T08:24:52.558Z,5.20
2023-01-12T08:27:24.735Z,7.90
2023-01-12T08:29:55.582Z,9.30
2023-01-12T08:32:24.183Z,8.33
2023-01-12T08:34:55.665Z,5.20
2023-01-12T08:37:26.059Z,6.67
2023-01-12T08:39:54.124Z,5.00
2023-01-12T08:42:25.741Z,5.33
2023-01-12T08:44:54.501Z,7.63
2023-01-12T08:47:27.078Z,4.63
2023-01-12T08:49:55.388Z,6.97
2023-01-12T08:52:25.565Z,7.50
2023-01-12T08:54:55.087Z,4.07
2023-01-12T08:57:23.135Z,6.37
2023-01-12T08:59:51.088Z,3.87
2023-01-12T09:02:19.199Z,5.73
2023-01-12T09:04:47.202Z,12.73
2023-01-12T09:07:17.089Z,2.77
2023-01-12T09:09:46.420Z,3.77
2023-01-12T09:12:14.434Z,5.73
2023-01-12T09:14:42.457Z,5.03
2023-01-12T09:17:10.457Z,7.87
2023-01-12T09:19:38.422Z,8.67
2023-01-12T09:22:06.386Z,5.80
2023-01-12T09:24:34.341Z,4.73
2023-01-12T09:27:03.914Z,5.37
2023-01-12T09:29:31.880Z,8.63
2023-01-12T09:31:59.854Z,5.77
2023-01-12T09:34:27.938Z,4.43
2023-01-12T09:36:56.687Z,4.67
2023-01-12T09:39:28.563Z,3.80
2023-01-12T09:42:14.905Z,5.87
2023-01-12T09:45:03.822Z,3.07
2023-01-12T09:47:36.971Z,6.07
2023-01-12T09:50:10.538Z,3.70
2023-01-12T09:52:42.586Z,8.80
2023-01-12T09:55:16.362Z,5.70
2023-01-12T09:58:11.558Z,3.10
2023-01-12T10:00:40.922Z,3.73
2023-01-12T10:03:16.626Z,6.30
2023-01-12T10:05:48.776Z,6.67
2023-01-12T10:08:21.651Z,7.40
2023-01-12T10:11:02.471Z,5.87
2023-01-12T10:13:52.267Z,7.03
2023-01-12T10:16:32.520Z,3.07
2023-01-12T10:19:08.813Z,5.87
2023-01-12T10:21:37.169Z,4.70
2023-01-12T10:24:12.464Z,5.27
2023-01-12T10:26:43.272Z,4.40
2023-01-12T10:29:13.192Z,6.07
2023-01-12T10:31:42.599Z,6.37
2023-01-12T10:34:12.368Z,6.47
2023-01-12T10:36:44.733Z,10.80
2023-01-12T10:39:30.276Z,7.43
2023-01-12T10:42:38.569Z,4.70
2023-01-12T10:45:18.660Z,7.43
2023-01-12T10:47:48.932Z,3.23
2023-01-12T10:50:27.416Z,5.53
2023-01-12T10:52:59.411Z,3.03
2023-01-12T10:55:32.567Z,3.93
2023-01-12T10:58:01.068Z,4.67
2023-01-12T11:00:30.787Z,6.70
2023-01-12T11:03:00.268Z,2.20
2023-01-12T11:05:31.629Z,7.90
2023-01-12T11:07:59.807Z,5.10
2023-01-12T11:10:30.126Z,3.47
2023-01-12T11:12:59.926Z,3.60
2023-01-12T11:15:29.570Z,2.67
2023-01-12T11:18:18.505Z,7.40
2023-01-12T11:20:51.387Z,6.77
2023-01-12T11:23:29.085Z,6.43
2023-01-12T11:26:00.443Z,2.97
2023-01-12T11:28:33.458Z,1.90
2023-01-12T11:31:06.512Z,3.43
2023-01-12T11:33:41.350Z,3.73
2023-01-12T11:36:11.760Z,4.87
2023-01-12T11:38:42.792Z,3.53
2023-01-12T11:41:20.544Z,6.97
2023-01-12T11:43:56.346Z,4.63
2023-01-12T11:46:27.863Z,6.13
2023-01-12T11:49:11.757Z,3.87
2023-01-12T11:51:40.338Z,3.37
2023-01-12T11:54:13.627Z,6.43
2023-01-12T11:57:19.418Z,4.33
2023-01-12T12:00:03.295Z,4.50
2023-01-12T12:02:37.071Z,4.87
2023-01-12T12:05:21.670Z,6.20
2023-01-12T12:08:06.883Z,5.80
2023-01-12T12:10:44.522Z,3.63
2023-01-12T12:13:26.200Z,4.83
2023-01-12T12:16:01.847Z,3.43
2023-01-12T12:18:45.407Z,3.07
2023-01-12T12:21:26.487Z,3.90
2023-01-12T12:24:06.703Z,5.10
2023-01-12T12:26:39.706Z,3.73
2023-01-12T12:29:26.157Z,5.47
2023-01-12T12:32:13.187Z,2.23
2023-01-12T12:34:59.793Z,2.37
2023-01-12T12:37:44.321Z,2.93
2023-01-12T12:40:24.569Z,8.27
2023-01-12T12:43:20.094Z,3.50
2023-01-12T12:45:56.373Z,2.03
2023-01-12T12:48:31.423Z,3.03
2023-01-12T12:51:04.423Z,3.77
2023-01-12T12:53:36.827Z,2.70
2023-01-12T12:56:08.343Z,4.13
2023-01-12T12:58:42.791Z,2.83
2023-01-12T13:01:55.785Z,2.43
2023-01-12T13:04:59.957Z,3.40
2023-01-12T13:07:28.905Z,0.90
2023-01-12T13:10:22.149Z,2.20
2023-01-12T13:13:03.990Z,2.20
2023-01-12T13:15:37.185Z,2.47
2023-01-12T13:18:07.231Z,1.70
2023-01-12T13:20:55.700Z,2.57
2023-01-12T13:23:48.627Z,3.30
2023-01-12T13:26:52.342Z,1.83
2023-01-12T13:29:44.272Z,4.33
2023-01-12T13:32:50.661Z,2.40
2023-01-12T13:35:54.416Z,1.53
2023-01-12T13:38:40.696Z,1.80
2023-01-12T13:41:39.013Z,2.90
2023-01-12T13:44:11.004Z,2.97
2023-01-12T13:46:45.157Z,2.33
2023-01-12T13:49:27.056Z,1.70
2023-01-12T13:51:59.447Z,1.83
2023-01-12T13:54:27.986Z,0.70
2023-01-12T13:56:58.569Z,2.27
2023-01-12T13:59:30.095Z,5.10
2023-01-12T14:01:59.246Z,0.97
2023-01-12T14:05:05.286Z,2.13
2023-01-12T14:07:46.842Z,1.70
2023-01-12T14:10:27.318Z,0.97
2023-01-12T14:13:13.244Z,1.83
2023-01-12T14:16:01.767Z,1.60
2023-01-12T14:18:41.421Z,1.87
2023-01-12T14:21:22.783Z,1.23
2023-01-12T14:23:50.964Z,1.33
2023-01-12T14:26:23.909Z,2.80
2023-01-12T14:28:53.014Z,1.07
2023-01-12T14:31:27.891Z,2.77
2023-01-12T14:33:57.448Z,0.97
2023-01-12T14:36:29.174Z,2.20
2023-01-12T14:38:59.331Z,3.77
2023-01-12T14:41:47.259Z,1.17
2023-01-12T14:44:38.992Z,1.57
2023-01-12T14:47:09.428Z,0.97
2023-01-12T14:49:39.298Z,2.20
2023-01-12T14:52:26.071Z,1.30
2023-01-12T14:54:54.181Z,2.53
2023-01-12T14:57:25.592Z,0.80
2023-01-12T14:59:54.862Z,1.70
2023-01-12T15:02:32.652Z,0.80
2023-01-12T15:05:02.973Z,0.50
2023-01-12T15:07:35.503Z,0.60
2023-01-12T15:10:26.176Z,1.40
2023-01-12T15:12:55.522Z,1.90
2023-01-12T15:15:25.446Z,2.30
2023-01-12T15:18:13.660Z,0.47
2023-01-12T15:21:01.368Z,1.80
2023-01-12T15:23:51.221Z,1.77
2023-01-12T15:26:20.214Z,1.03
2023-01-12T15:28:49.541Z,1.60
2023-01-12T15:31:24.113Z,5.07
2023-01-12T15:33:53.977Z,1.43
2023-01-12T15:36:22.051Z,2.43
2023-01-12T15:38:50.147Z,0.83
2023-01-12T15:41:40.773Z,1.70
2023-01-12T15:44:13.253Z,1.27
2023-01-12T15:46:41.788Z,1.80
2023-01-12T15:49:13.311Z,3.30
2023-01-12T15:51:41.907Z,1.67
2023-01-12T15:54:13.810Z,0.80
2023-01-12T15:56:43.966Z,0.70
2023-01-12T15:59:12.284Z,2.10
2023-01-12T16:01:44.665Z,1.23
2023-01-12T16:04:41.450Z,2.13
2023-01-12T16:07:05.300Z,1.83
2023-01-12T16:09:33.385Z,2.00
2023-01-12T16:12:01.552Z,1.37
2023-01-12T16:14:29.571Z,0.57
2023-01-12T16:16:57.709Z,1.13
2023-01-12T16:19:28.299Z,0.50
2023-01-12T16:21:56.546Z,2.73
2023-01-12T16:24:30.907Z,2.13
2023-01-12T16:27:09.324Z,0.30
2023-01-12T16:29:37.315Z,0.40
2023-01-12T16:32:05.527Z,2.07
2023-01-12T16:34:35.376Z,1.50
2023-01-12T16:37:03.847Z,1.83
2023-01-12T16:39:32.988Z,1.40
2023-01-12T16:42:03.543Z,1.60
2023-01-12T16:44:32.708Z,1.13
2023-01-12T16:47:00.797Z,0.37
2023-01-12T16:49:29.006Z,3.10
2023-01-12T16:51:58.451Z,0.60
2023-01-12T16:54:26.498Z,1.27
2023-01-12T16:56:54.962Z,0.50
2023-01-12T16:59:22.975Z,2.00
2023-01-12T17:01:51.924Z,2.77
2023-01-12T17:04:20.937Z,7.30
2023-01-12T17:06:49.532Z,4.10
2023-01-12T17:09:19.426Z,1.27
2023-01-12T17:11:50.427Z,4.67
2023-01-12T17:14:24.318Z,3.37
2023-01-12T17:16:53.658Z,1.83
2023-01-12T17:19:21.809Z,0.80
2023-01-12T17:21:50.872Z,2.47
2023-01-12T17:24:21.656Z,1.60
2023-01-12T17:26:51.888Z,6.73
2023-01-12T17:29:20.916Z,4.03
2023-01-12T17:31:49.998Z,1.00
2023-01-12T17:34:18.469Z,1.63
2023-01-12T17:36:46.669Z,1.20
2023-01-12T17:39:15.738Z,2.47
2023-01-12T17:42:02.615Z,4.43
2023-01-12T17:44:31.610Z,4.13
2023-01-12T17:46:59.781Z,2.00
2023-01-12T17:49:28.310Z,1.57
2023-01-12T17:51:56.497Z,1.27
2023-01-12T17:54:25.549Z,1.03
2023-01-12T17:56:55.946Z,0.90
2023-01-12T17:59:24.729Z,2.90
2023-01-12T18:01:53.632Z,0.50
2023-01-12T18:04:22.628Z,2.00
2023-01-12T18:06:50.692Z,3.60
2023-01-12T18:09:19.080Z,1.23
2023-01-12T18:11:47.196Z,0.40
2023-01-12T18:14:16.807Z,0.63
2023-01-12T18:16:44.886Z,1.87
2023-01-12T18:19:14.912Z,0.83
2023-01-12T18:21:42.953Z,0.90
2023-01-12T18:24:11.190Z,1.03
2023-01-12T18:26:39.285Z,0.67
2023-01-12T18:29:07.868Z,1.40
2023-01-12T18:31:38.498Z,1.30
2023-01-12T18:34:07.802Z,0.67
2023-01-12T18:36:37.709Z,1.70
2023-01-12T18:39:07.265Z,0.90
2023-01-12T18:41:54.598Z,0.63
2023-01-12T18:44:22.870Z,2.03
2023-01-12T18:47:09.835Z,1.70
2023-01-12T18:49:39.131Z,1.30
2023-01-12T18:52:27.629Z,2.00
2023-01-12T18:54:55.669Z,2.10
2023-01-12T18:57:26.601Z,1.23
2023-01-12T18:59:56.645Z,1.60
2023-01-12T19:02:26.221Z,0.60
2023-01-12T19:05:13.222Z,4.43
2023-01-12T19:07:51.912Z,0.50
2023-01-12T19:10:19.037Z,0.43
2023-01-12T19:12:47.904Z,0.60
2023-01-12T19:15:33.883Z,0.80
2023-01-12T19:18:03.311Z,1.70
2023-01-12T19:20:31.972Z,0.73
2023-01-12T19:23:17.346Z,0.70
2023-01-12T19:26:02.968Z,0.73
2023-01-12T19:28:35.710Z,0.80
2023-01-12T19:31:05.495Z,0.80
2023-01-12T19:33:35.071Z,3.63
2023-01-12T19:36:06.775Z,1.10
2023-01-12T19:38:35.949Z,0.67
2023-01-12T19:41:11.749Z,3.47
2023-01-12T19:43:41.707Z,2.47
2023-01-12T19:46:11.233Z,1.97
2023-01-12T19:48:40.748Z,0.67
2023-01-12T19:51:11.354Z,1.07
2023-01-12T19:53:40.575Z,0.97
2023-01-12T19:56:11.230Z,0.67
2023-01-12T19:58:39.882Z,0.50
2023-01-12T20:01:09.036Z,0.47
2023-01-12T20:03:39.817Z,1.50
2023-01-12T20:06:10.300Z,0.33
2023-01-12T20:08:38.377Z,1.33
2023-01-12T20:11:06.714Z,0.27
2023-01-12T20:13:35.750Z,0.83
2023-01-12T20:16:07.462Z,0.97
2023-01-12T20:18:36.130Z,1.60
2023-01-12T20:21:10.405Z,1.43
2023-01-12T20:23:38.553Z,0.43
2023-01-12T20:26:08.211Z,0.20
2023-01-12T20:28:36.541Z,1.70
2023-01-12T20:31:10.356Z,0.93
2023-01-12T20:33:38.526Z,0.40
2023-01-12T20:36:10.374Z,0.80
2023-01-12T20:38:38.452Z,4.90
2023-01-12T20:41:06.962Z,0.40
2023-01-12T20:43:35.314Z,1.07
2023-01-12T20:46:03.644Z,0.53
2023-01-12T20:48:31.687Z,0.80
2023-01-12T20:51:01.146Z,1.90
2023-01-12T20:53:31.590Z,0.63
2023-01-12T20:55:59.741Z,1.40
2023-01-12T20:58:27.786Z,1.23
2023-01-12T21:00:55.956Z,1.87
2023-01-12T21:03:24.267Z,1.80
2023-01-12T21:05:52.390Z,0.70
2023-01-12T21:08:20.479Z,1.30
2023-01-12T21:10:51.773Z,0.50
2023-01-12T21:13:20.594Z,3.13
2023-01-12T21:15:48.689Z,0.43
2023-01-12T21:18:16.700Z,0.83
2023-01-12T21:20:44.905Z,0.60
2023-01-12T21:23:12.951Z,0.53
2023-01-12T21:25:43.112Z,2.90
2023-01-12T21:28:13.020Z,0.60
2023-01-12T21:30:41.636Z,2.77
2023-01-12T21:33:10.469Z,1.23
2023-01-12T21:35:38.580Z,0.87
2023-01-12T21:38:07.270Z,1.90
2023-01-12T21:40:35.867Z,0.37
2023-01-12T21:43:09.609Z,0.30
2023-01-12T21:45:40.786Z,0.50
2023-01-12T21:48:10.158Z,0.60
2023-01-12T21:50:38.558Z,0.40
2023-01-12T21:53:08.159Z,0.60
2023-01-12T21:55:36.319Z,0.93
2023-01-12T21:58:04.382Z,2.00
2023-01-12T22:00:32.857Z,1.20
2023-01-12T22:03:02.237Z,1.90
2023-01-12T22:05:30.326Z,0.90
2023-01-12T22:07:58.723Z,0.50
2023-01-12T22:10:30.576Z,1.00
2023-01-12T22:13:02.813Z,0.40
2023-01-12T22:15:31.631Z,1.80
2023-01-12T22:18:01.025Z,2.27
2023-01-12T22:20:29.117Z,0.43
2023-01-12T22:22:57.178Z,0.30
2023-01-12T22:25:25.334Z,0.50
2023-01-12T22:27:53.593Z,0.27
2023-01-12T22:30:24.139Z,1.53
2023-01-12T22:32:55.352Z,1.07
2023-01-12T22:35:26.168Z,0.77
2023-01-12T22:37:54.709Z,0.93
2023-01-12T22:40:22.774Z,0.90
2023-01-12T22:43:08.467Z,0.90
2023-01-12T22:45:37.712Z,0.40
2023-01-12T22:48:06.575Z,1.73
2023-01-12T22:50:36.028Z,0.50
2023-01-12T22:53:04.117Z,0.47
2023-01-12T22:55:32.174Z,1.83
2023-01-12T23:01:55.421Z,0.87
2023-01-12T23:04:23.478Z,0.50
2023-01-12T23:06:52.814Z,1.83
2023-01-12T23:09:20.800Z,0.50
2023-01-12T23:11:48.822Z,0.80
2023-01-12T23:14:16.875Z,0.83
2023-01-12T23:16:44.844Z,0.30
2023-01-12T23:19:12.851Z,4.13
2023-01-12T23:24:21.370Z,1.33
2023-01-12T23:26:49.745Z,1.00
2023-01-12T23:29:18.054Z,1.50
2023-01-12T23:31:46.125Z,0.40
2023-01-12T23:34:14.435Z,0.30
2023-01-12T23:36:43.031Z,3.47
2023-01-12T23:39:12.584Z,0.40
2023-01-12T23:41:42.047Z,0.47
2023-01-12T23:44:11.606Z,0.43
2023-01-12T23:46:42.539Z,0.73
2023-01-12T23:49:11.930Z,0.37
2023-01-12T23:51:40.456Z,0.93
2023-01-12T23:54:08.544Z,0.40
2023-01-12T23:56:36.573Z,0.60
2023-01-12T23:59:06.028Z,2.87
